Time;durP1;ratioP1;P1;durP2;ratioP2;P2;SDS_P1;SDS_P2;PMS_P1;PMS_P2;Temp;Humidity;BMP_temperature;BMP_pressure;BME280_temperature;BME280_humidity;BME280_pressure;Samples;Min_cycle;Max_cycle;Signal;HPM_P1;HPM_P2
2022/11/12 00:01:22;;;;;;;19.60;14.30;;;5.10;99.90;;;;;;5070225;28;20032;-32
2022/11/12 00:03:47;;;;;;;18.30;14.13;;;5.10;99.90;;;;;;5048719;28;20033;-35
2022/11/12 00:06:14;;;;;;;19.73;16.30;;;5.10;99.90;;;;;;5075006;28;20040;-32
2022/11/12 00:08:39;;;;;;;22.88;15.65;;;5.00;99.90;;;;;;5067942;28;20056;-32
2022/11/12 00:11:06;;;;;;;25.05;16.45;;;5.10;99.90;;;;;;5063508;28;20477;-32
2022/11/12 00:13:31;;;;;;;19.35;14.73;;;5.10;99.90;;;;;;5069394;28;20043;-31
2022/11/12 00:15:57;;;;;;;17.67;14.38;;;5.00;99.90;;;;;;5072246;28;20036;-32
2022/11/12 00:18:23;;;;;;;19.13;14.75;;;5.00;99.90;;;;;;5078977;28;20071;-32
2022/11/12 00:20:49;;;;;;;19.52;15.02;;;4.90;99.90;;;;;;5070739;28;20390;-36
2022/11/12 00:23:14;;;;;;;17.02;14.27;;;4.90;99.90;;;;;;5060355;28;20032;-34
2022/11/12 00:25:40;;;;;;;16.52;14.43;;;4.90;99.90;;;;;;5059321;28;20039;-33
2022/11/12 00:28:08;;;;;;;17.48;13.88;;;4.90;99.90;;;;;;5054863;28;20040;-32
2022/11/12 00:30:37;;;;;;;19.60;15.02;;;4.80;99.90;;;;;;5055473;28;20105;-35
2022/11/12 00:33:03;;;;;;;20.48;14.50;;;4.80;99.90;;;;;;5079356;28;20040;-33
2022/11/12 00:35:33;;;;;;;22.73;16.10;;;4.70;99.90;;;;;;5062111;28;20091;-34
2022/11/12 00:37:59;;;;;;;23.05;16.50;;;4.70;99.90;;;;;;5038466;28;20506;-33
2022/11/12 00:40:26;;;;;;;17.92;14.45;;;4.70;99.90;;;;;;5049905;28;20044;-32
2022/11/12 00:42:52;;;;;;;20.05;15.73;;;4.70;99.90;;;;;;5063783;28;20040;-33
2022/11/12 00:45:19;;;;;;;20.17;15.73;;;4.70;99.90;;;;;;5080902;28;20059;-34
2022/11/12 00:47:45;;;;;;;22.85;15.00;;;4.70;99.90;;;;;;5060113;28;20044;-32
2022/11/12 00:50:11;;;;;;;20.88;15.32;;;4.60;99.90;;;;;;5055835;28;20041;-33
2022/11/12 00:52:37;;;;;;;25.88;19.35;;;4.60;99.90;;;;;;5043431;28;20032;-33
2022/11/12 00:55:03;;;;;;;28.17;20.63;;;4.60;99.90;;;;;;5068154;28;20040;-32
2022/11/12 00:57:29;;;;;;;28.30;21.20;;;4.70;99.90;;;;;;5055347;28;20043;-32
2022/11/12 00:59:54;;;;;;;23.00;17.60;;;4.70;99.90;;;;;;5074775;28;20032;-35
2022/11/12 01:02:21;;;;;;;21.67;16.38;;;4.70;99.90;;;;;;5058614;28;20047;-36
2022/11/12 01:04:47;;;;;;;22.35;17.77;;;4.70;99.90;;;;;;5069204;28;20079;-34
2022/11/12 01:07:14;;;;;;;22.45;15.77;;;4.70;99.90;;;;;;5061992;28;20028;-34
2022/11/12 01:09:40;;;;;;;18.75;15.60;;;4.60;99.90;;;;;;5056365;28;20040;-35
2022/11/12 01:12:06;;;;;;;23.15;16.80;;;4.60;99.90;;;;;;5071315;28;20033;-35
2022/11/12 01:14:32;;;;;;;22.25;15.80;;;4.60;99.90;;;;;;5045569;28;20120;-34
2022/11/12 01:16:58;;;;;;;22.30;17.70;;;4.60;99.90;;;;;;5068669;28;20504;-33
2022/11/12 01:19:24;;;;;;;21.08;15.98;;;4.60;99.90;;;;;;5053713;28;20127;-37
2022/11/12 01:21:50;;;;;;;26.33;18.42;;;4.60;99.90;;;;;;5046215;28;20055;-32
2022/11/12 01:24:15;;;;;;;24.38;16.65;;;4.60;99.90;;;;;;5061909;28;20036;-32
2022/11/12 01:26:41;;;;;;;34.47;24.90;;;4.60;99.90;;;;;;5046325;28;20037;-33
2022/11/12 01:29:07;;;;;;;26.40;19.00;;;4.50;99.90;;;;;;5048223;28;20033;-33
2022/11/12 01:31:35;;;;;;;23.27;17.92;;;4.60;99.90;;;;;;5070789;28;20071;-34
2022/11/12 01:34:06;;;;;;;21.42;17.33;;;4.60;99.90;;;;;;5072646;28;20048;-35
2022/11/12 01:36:34;;;;;;;20.55;16.38;;;4.60;99.90;;;;;;5056986;28;20044;-32
2022/11/12 01:39:00;;;;;;;23.88;16.98;;;4.50;99.90;;;;;;5064696;28;20124;-33
2022/11/12 01:41:30;;;;;;;21.00;15.73;;;4.50;99.90;;;;;;5051225;28;20509;-32
2022/11/12 01:44:18;;;;;;;17.70;14.68;;;4.40;99.90;;;;;;5075427;28;20098;-33
2022/11/12 01:47:08;;;;;;;27.73;18.83;;;4.40;99.90;;;;;;5063480;28;20040;-31
2022/11/12 01:49:46;;;;;;;18.05;14.07;;;4.40;99.90;;;;;;5061573;28;20037;-31
2022/11/12 01:52:18;;;;;;;17.80;15.00;;;4.40;99.90;;;;;;5055913;28;20036;-31
2022/11/12 01:54:48;;;;;;;19.17;14.50;;;4.40;99.90;;;;;;5072428;28;20040;-33
2022/11/12 01:57:17;;;;;;;18.73;14.85;;;4.40;99.90;;;;;;5043776;28;20489;-32
2022/11/12 01:59:45;;;;;;;17.00;13.15;;;4.40;99.90;;;;;;5053517;28;20033;-34
2022/11/12 02:02:11;;;;;;;19.83;14.95;;;4.30;99.90;;;;;;5038487;28;20035;-32
2022/11/12 02:04:41;;;;;;;17.75;14.38;;;4.40;99.90;;;;;;5061481;28;20036;-34
2022/11/12 02:07:08;;;;;;;17.65;14.23;;;4.40;99.90;;;;;;5076419;28;20032;-32
2022/11/12 02:09:35;;;;;;;14.60;12.43;;;4.40;99.90;;;;;;5058556;28;20056;-33
2022/11/12 02:12:01;;;;;;;15.43;12.77;;;4.40;99.90;;;;;;5084328;28;20474;-33
2022/11/12 02:14:27;;;;;;;15.27;12.52;;;4.30;99.90;;;;;;5071008;28;20109;-33
2022/11/12 02:16:53;;;;;;;18.95;13.73;;;4.30;99.90;;;;;;5059913;28;20609;-33
2022/11/12 02:19:19;;;;;;;16.80;12.68;;;4.30;99.90;;;;;;5064519;28;20073;-35
2022/11/12 02:21:45;;;;;;;19.42;13.32;;;4.20;99.90;;;;;;5052807;28;20186;-36
2022/11/12 02:24:11;;;;;;;20.25;14.07;;;4.20;99.90;;;;;;5067849;28;20048;-31
2022/11/12 02:26:41;;;;;;;16.90;14.15;;;4.20;99.90;;;;;;5067543;28;20111;-34
2022/11/12 02:29:08;;;;;;;16.25;12.70;;;4.20;99.90;;;;;;5073696;28;20477;-31
2022/11/12 02:31:34;;;;;;;15.90;13.55;;;4.20;99.90;;;;;;5074941;28;20033;-35
2022/11/12 02:33:59;;;;;;;17.90;13.05;;;4.20;99.90;;;;;;5058442;28;20044;-33
2022/11/12 02:36:26;;;;;;;16.42;12.30;;;4.20;99.90;;;;;;5066479;28;20063;-34
2022/11/12 02:38:51;;;;;;;19.50;13.40;;;4.20;99.90;;;;;;5051391;28;20457;-31
2022/11/12 02:41:17;;;;;;;14.90;11.50;;;4.10;99.90;;;;;;5053962;28;20063;-32
2022/11/12 02:43:43;;;;;;;22.55;14.75;;;4.10;99.90;;;;;;5079477;28;20413;-33
2022/11/12 02:46:09;;;;;;;17.92;12.70;;;4.10;99.90;;;;;;5069550;28;20223;-34
2022/11/12 02:48:35;;;;;;;16.55;12.25;;;4.10;99.90;;;;;;5065836;28;20059;-34
2022/11/12 02:51:00;;;;;;;16.35;12.00;;;4.10;99.90;;;;;;5073845;28;20037;-35
2022/11/12 02:53:26;;;;;;;18.02;12.10;;;4.10;99.90;;;;;;5057305;28;20043;-32
2022/11/12 02:55:55;;;;;;;18.38;12.48;;;4.10;99.90;;;;;;5059785;28;20041;-33
2022/11/12 02:58:23;;;;;;;16.40;11.65;;;4.10;99.90;;;;;;5071036;28;20036;-36
2022/11/12 03:00:49;;;;;;;16.30;11.25;;;4.00;99.90;;;;;;5053703;28;20072;-31
2022/11/12 03:03:15;;;;;;;16.55;11.93;;;4.00;99.90;;;;;;5054217;28;20067;-34
2022/11/12 03:05:41;;;;;;;16.60;11.93;;;4.00;99.90;;;;;;5066585;28;20041;-37
2022/11/12 03:08:08;;;;;;;14.02;11.25;;;4.00;99.90;;;;;;5054006;28;20041;-32
2022/11/12 03:10:37;;;;;;;15.52;11.98;;;4.00;99.90;;;;;;5073680;28;20075;-33
2022/11/12 03:13:02;;;;;;;14.20;10.73;;;4.00;99.90;;;;;;5076739;28;20485;-34
2022/11/12 03:15:29;;;;;;;12.40;10.52;;;3.90;99.90;;;;;;5074508;28;20055;-31
2022/11/12 03:17:57;;;;;;;13.93;11.13;;;3.90;99.90;;;;;;5071697;28;20047;-34
2022/11/12 03:20:22;;;;;;;15.27;11.20;;;3.90;99.90;;;;;;5058838;28;20044;-33
2022/11/12 03:23:06;;;;;;;12.88;9.75;;;3.90;99.90;;;;;;5056187;28;20558;-33
2022/11/12 03:25:32;;;;;;;13.65;10.60;;;3.80;99.90;;;;;;5069010;28;20375;-33
2022/11/12 03:27:59;;;;;;;14.52;11.25;;;3.90;99.90;;;;;;5064718;28;20037;-36
2022/11/12 03:30:30;;;;;;;17.48;12.18;;;3.90;99.90;;;;;;5070268;28;20055;-32
2022/11/12 03:32:56;;;;;;;14.98;10.82;;;3.90;99.90;;;;;;5085596;28;20093;-33
2022/11/12 03:35:22;;;;;;;16.50;11.13;;;3.90;99.90;;;;;;5074681;28;20040;-32
2022/11/12 03:37:48;;;;;;;16.00;10.75;;;3.90;99.90;;;;;;5053180;28;20036;-32
2022/11/12 03:40:15;;;;;;;13.70;10.30;;;3.90;99.90;;;;;;5060456;28;20093;-31
2022/11/12 03:42:46;;;;;;;13.52;10.60;;;3.90;99.90;;;;;;5072991;28;20032;-32
2022/11/12 03:45:12;;;;;;;13.52;10.25;;;3.80;99.90;;;;;;5062500;28;20032;-33
2022/11/12 03:47:43;;;;;;;13.85;10.40;;;3.80;99.90;;;;;;5077831;28;20040;-32
2022/11/12 03:50:10;;;;;;;13.05;10.85;;;3.80;99.90;;;;;;5060414;28;20078;-32
2022/11/12 03:52:37;;;;;;;12.30;9.73;;;3.80;99.90;;;;;;5064860;28;20041;-33
2022/11/12 03:55:04;;;;;;;11.98;9.95;;;3.80;99.90;;;;;;5084188;28;20040;-32
2022/11/12 03:57:30;;;;;;;15.20;10.35;;;3.80;99.90;;;;;;5050005;28;20386;-34
2022/11/12 03:59:55;;;;;;;18.10;12.63;;;3.80;99.90;;;;;;5050336;28;20033;-33
2022/11/12 04:02:21;;;;;;;21.23;13.48;;;3.80;99.90;;;;;;5082351;28;20032;-30
2022/11/12 04:10:15;;;;;;;11.93;9.88;;;3.80;99.90;;;;;;5075522;28;19924;-31
2022/11/12 04:15:25;;;;;;;13.18;10.15;;;3.70;99.90;;;;;;5067334;28;20052;-32
2022/11/12 04:23:19;;;;;;;13.20;10.25;;;3.70;99.90;;;;;;5059866;28;20016;-32
2022/11/12 04:28:29;;;;;;;13.18;10.45;;;3.60;99.90;;;;;;5060812;28;20037;-32
2022/11/12 04:30:55;;;;;;;14.02;10.77;;;3.60;99.90;;;;;;5072338;28;20044;-34
2022/11/12 04:33:21;;;;;;;12.88;9.43;;;3.60;99.90;;;;;;5068436;28;20498;-33
2022/11/12 04:35:46;;;;;;;13.13;9.90;;;3.50;99.90;;;;;;5064300;28;20055;-33
2022/11/12 04:38:12;;;;;;;15.90;10.63;;;3.50;99.90;;;;;;5050033;28;20033;-31
2022/11/12 04:46:06;;;;;;;14.27;11.23;;;3.50;99.90;;;;;;5072713;28;20047;-31
2022/11/12 04:48:32;;;;;;;16.73;11.30;;;3.50;99.90;;;;;;5055484;28;20422;-30
2022/11/12 04:51:00;;;;;;;12.23;9.85;;;3.50;99.90;;;;;;5059047;28;20512;-32
2022/11/12 04:53:27;;;;;;;11.95;9.68;;;3.50;99.90;;;;;;5069283;28;20409;-35
2022/11/12 04:55:56;;;;;;;13.45;9.70;;;3.50;99.90;;;;;;5065093;28;20099;-30
2022/11/12 04:58:22;;;;;;;14.75;9.68;;;3.50;99.90;;;;;;5062707;28;20043;-34
2022/11/12 05:00:48;;;;;;;11.63;9.18;;;3.40;99.90;;;;;;5072425;28;20398;-31
2022/11/12 05:03:15;;;;;;;13.93;10.13;;;3.40;99.90;;;;;;5057772;28;20048;-31
2022/11/12 05:05:41;;;;;;;12.10;9.43;;;3.40;99.90;;;;;;5071311;28;20052;-31
2022/11/12 05:08:06;;;;;;;12.55;10.25;;;3.40;99.90;;;;;;5067649;28;20048;-30
2022/11/12 05:10:32;;;;;;;13.23;10.23;;;3.30;99.90;;;;;;5071471;28;20402;-31
2022/11/12 05:12:58;;;;;;;10.60;8.63;;;3.30;99.90;;;;;;5071132;28;20049;-34
2022/11/12 05:15:24;;;;;;;10.23;9.13;;;3.30;99.90;;;;;;5048030;28;20461;-30
2022/11/12 05:17:50;;;;;;;10.65;8.65;;;3.30;99.90;;;;;;5071145;28;20080;-30
2022/11/12 05:20:16;;;;;;;9.30;8.23;;;3.20;99.90;;;;;;5054336;28;20040;-36
2022/11/12 05:22:42;;;;;;;8.70;7.78;;;3.20;99.90;;;;;;5072062;28;20044;-34
2022/11/12 05:25:08;;;;;;;8.65;7.75;;;3.20;99.90;;;;;;5057344;28;20062;-31
2022/11/12 05:27:34;;;;;;;7.57;6.88;;;3.20;99.90;;;;;;5072301;28;20047;-29
2022/11/12 05:30:00;;;;;;;7.28;6.57;;;3.10;99.90;;;;;;5050099;28;20036;-32
2022/11/12 05:32:26;;;;;;;8.00;7.30;;;3.10;99.90;;;;;;5064189;28;20036;-31
2022/11/12 05:34:52;;;;;;;8.52;7.03;;;3.10;99.90;;;;;;5070566;28;20044;-34
2022/11/12 05:37:18;;;;;;;7.28;6.57;;;3.10;99.90;;;;;;5059771;28;20036;-31
2022/11/12 05:39:44;;;;;;;6.90;6.20;;;3.10;99.90;;;;;;5047130;28;20441;-31
2022/11/12 05:42:10;;;;;;;13.57;9.65;;;3.10;99.90;;;;;;5075056;28;20029;-34
2022/11/12 05:44:36;;;;;;;10.18;7.75;;;3.10;99.90;;;;;;5070614;28;20071;-31
2022/11/12 05:47:02;;;;;;;9.77;7.50;;;3.10;99.90;;;;;;5070643;28;20119;-32
2022/11/12 05:49:27;;;;;;;9.30;8.32;;;3.10;99.90;;;;;;5073018;28;20040;-34
2022/11/12 05:51:53;;;;;;;8.82;8.02;;;3.00;99.90;;;;;;5078001;28;20043;-32
2022/11/12 05:54:19;;;;;;;8.57;7.72;;;3.10;99.90;;;;;;5071113;28;20047;-33
2022/11/12 05:56:45;;;;;;;9.55;8.23;;;3.00;99.90;;;;;;5048941;28;20044;-31
2022/11/12 05:59:12;;;;;;;8.35;7.45;;;3.00;99.90;;;;;;5054456;28;20443;-32
2022/11/12 06:01:42;;;;;;;8.30;7.55;;;3.00;99.90;;;;;;5069778;28;20033;-34
2022/11/12 06:04:13;;;;;;;8.85;7.55;;;2.90;99.90;;;;;;5044793;28;20502;-32
2022/11/12 06:06:40;;;;;;;10.05;7.90;;;2.90;99.90;;;;;;5076997;28;20040;-33
2022/11/12 06:09:06;;;;;;;8.40;7.50;;;2.80;99.90;;;;;;5074934;28;20048;-31
2022/11/12 06:11:32;;;;;;;9.40;7.97;;;2.80;99.90;;;;;;5071637;28;20046;-35
2022/11/12 06:13:59;;;;;;;8.05;7.25;;;2.80;99.90;;;;;;5076683;28;20115;-33
2022/11/12 06:16:25;;;;;;;8.05;7.25;;;2.80;99.90;;;;;;5072662;28;20055;-33
2022/11/12 06:18:50;;;;;;;9.48;7.55;;;2.80;99.90;;;;;;5072416;28;20467;-32
2022/11/12 06:21:19;;;;;;;7.80;6.97;;;2.80;99.90;;;;;;5052853;28;20040;-34
2022/11/12 06:23:46;;;;;;;7.70;6.90;;;2.70;99.90;;;;;;5053267;28;20040;-36
2022/11/12 06:26:12;;;;;;;7.47;6.78;;;2.70;99.90;;;;;;5069156;28;20041;-31
2022/11/12 06:28:38;;;;;;;8.15;6.72;;;2.70;99.90;;;;;;5072170;28;20040;-31
2022/11/12 06:31:04;;;;;;;7.43;6.63;;;2.70;99.90;;;;;;5056930;28;20043;-34
2022/11/12 06:33:29;;;;;;;8.80;7.63;;;2.70;99.90;;;;;;5052384;28;20036;-32
2022/11/12 06:36:04;;;;;;;10.65;7.30;;;2.60;99.90;;;;;;5053509;28;20045;-33
2022/11/12 06:38:38;;;;;;;9.63;7.88;;;2.60;99.90;;;;;;5051244;28;20041;-29
2022/11/12 06:41:05;;;;;;;8.70;7.15;;;2.60;99.90;;;;;;5055409;28;20159;-35
2022/11/12 06:43:32;;;;;;;10.07;7.47;;;2.60;99.90;;;;;;5061607;28;20044;-32
2022/11/12 06:46:04;;;;;;;8.40;7.45;;;2.60;99.90;;;;;;5074140;28;20028;-33
2022/11/12 06:48:30;;;;;;;9.40;6.80;;;2.50;99.90;;;;;;5074579;28;20048;-31
2022/11/12 06:50:57;;;;;;;8.73;7.22;;;2.60;99.90;;;;;;5076809;28;20084;-33
2022/11/12 06:53:24;;;;;;;9.57;7.15;;;2.60;99.90;;;;;;5070834;28;20044;-32
2022/11/12 06:55:50;;;;;;;7.95;7.15;;;2.60;99.90;;;;;;5070107;28;20041;-30
2022/11/12 06:58:16;;;;;;;10.55;7.70;;;2.60;99.90;;;;;;5074557;28;20044;-31
2022/11/12 07:00:42;;;;;;;9.82;8.43;;;2.60;99.90;;;;;;5055160;28;20037;-31
2022/11/12 07:03:09;;;;;;;7.85;7.15;;;2.60;99.90;;;;;;5067278;28;20033;-33
2022/11/12 07:05:36;;;;;;;10.95;8.18;;;2.60;99.90;;;;;;5070256;28;20458;-31
2022/11/12 07:08:04;;;;;;;9.88;7.50;;;2.60;99.90;;;;;;5054413;28;20115;-34
2022/11/12 07:10:29;;;;;;;8.02;7.03;;;2.60;99.90;;;;;;5076270;28;20047;-35
2022/11/12 07:12:55;;;;;;;9.90;8.63;;;2.60;99.90;;;;;;5053285;28;20402;-33
2022/11/12 07:15:21;;;;;;;11.55;8.95;;;2.60;99.90;;;;;;5072687;28;20044;-32
2022/11/12 07:17:47;;;;;;;15.50;10.52;;;2.70;99.90;;;;;;5056950;28;20033;-33
2022/11/12 07:20:13;;;;;;;18.67;12.32;;;2.60;99.90;;;;;;5056913;28;20031;-30
2022/11/12 07:22:39;;;;;;;20.33;13.68;;;2.70;99.90;;;;;;5068855;28;20040;-31
2022/11/12 07:25:05;;;;;;;22.23;14.57;;;2.70;99.90;;;;;;5076406;28;20040;-36
2022/11/12 07:27:30;;;;;;;20.90;14.20;;;2.70;99.90;;;;;;5034586;28;20120;-34
2022/11/12 07:29:56;;;;;;;15.45;12.38;;;2.70;99.90;;;;;;5053025;28;20175;-32
2022/11/12 07:32:22;;;;;;;15.40;11.00;;;2.70;99.90;;;;;;5083971;28;20040;-34
2022/11/12 07:34:49;;;;;;;14.60;11.02;;;2.70;99.90;;;;;;5068899;28;20147;-32
2022/11/12 07:37:15;;;;;;;11.57;10.10;;;2.70;99.90;;;;;;5076475;28;20072;-33
2022/11/12 07:39:41;;;;;;;13.55;11.25;;;2.80;99.90;;;;;;5045803;28;20113;-31
2022/11/12 07:42:06;;;;;;;13.60;10.48;;;2.80;99.90;;;;;;5074505;28;20545;-32
2022/11/12 07:44:32;;;;;;;14.98;11.68;;;2.80;99.90;;;;;;5060599;28;20174;-32
2022/11/12 07:46:58;;;;;;;13.23;9.88;;;2.90;99.90;;;;;;5073821;28;20481;-31
2022/11/12 07:49:24;;;;;;;12.75;9.98;;;3.00;99.90;;;;;;5059689;28;20047;-31
2022/11/12 07:51:50;;;;;;;12.82;9.95;;;3.00;99.90;;;;;;5079748;28;20047;-32
2022/11/12 07:54:16;;;;;;;10.82;9.05;;;3.00;99.90;;;;;;5062187;28;20047;-34
2022/11/12 07:56:42;;;;;;;12.88;8.80;;;3.10;99.90;;;;;;5064057;28;20502;-32
2022/11/12 07:59:08;;;;;;;12.75;9.15;;;3.10;99.90;;;;;;5070083;28;20033;-35
2022/11/12 08:01:35;;;;;;;10.65;9.30;;;3.10;99.90;;;;;;5078285;28;20119;-32
2022/11/12 08:04:03;;;;;;;10.85;8.45;;;3.20;99.90;;;;;;5083008;28;20034;-33
2022/11/12 08:06:30;;;;;;;12.55;10.15;;;3.30;99.90;;;;;;5062087;28;20094;-32
2022/11/12 08:08:58;;;;;;;12.57;10.48;;;3.40;99.90;;;;;;5062845;28;20076;-33
2022/11/12 08:11:24;;;;;;;13.93;11.15;;;3.50;99.90;;;;;;5062910;28;20057;-32
2022/11/12 08:13:50;;;;;;;13.15;11.82;;;3.60;99.90;;;;;;5075476;28;20437;-32
2022/11/12 08:16:17;;;;;;;11.82;10.32;;;4.00;99.90;;;;;;5084083;28;20071;-33
2022/11/12 08:18:44;;;;;;;12.55;10.55;;;4.50;99.90;;;;;;5071637;28;20036;-31
2022/11/12 08:21:13;;;;;;;12.45;10.02;;;5.10;99.90;;;;;;5061901;28;20043;-33
2022/11/12 08:23:39;;;;;;;15.73;9.82;;;5.80;99.90;;;;;;5074887;28;20390;-33
2022/11/12 08:26:07;;;;;;;9.63;8.38;;;6.40;99.90;;;;;;5073161;28;20405;-35
2022/11/12 08:28:34;;;;;;;8.88;7.20;;;7.00;99.90;;;;;;5070476;28;20036;-33
2022/11/12 08:31:08;;;;;;;8.70;6.68;;;7.50;99.90;;;;;;5065857;28;20056;-32
2022/11/12 08:33:35;;;;;;;6.88;6.18;;;8.00;99.90;;;;;;5046910;28;20131;-33
2022/11/12 08:36:05;;;;;;;8.32;6.20;;;8.50;99.90;;;;;;5071348;28;20036;-34
2022/11/12 08:38:32;;;;;;;7.97;7.18;;;8.90;99.90;;;;;;5054115;28;20040;-34
2022/11/12 08:41:04;;;;;;;12.63;6.65;;;9.10;99.90;;;;;;5071099;28;20543;-33
2022/11/12 08:43:29;;;;;;;7.55;6.25;;;9.10;99.90;;;;;;5053163;28;20093;-36
2022/11/12 08:46:00;;;;;;;7.30;6.43;;;9.10;99.90;;;;;;5071246;28;20401;-33
2022/11/12 08:48:27;;;;;;;8.93;6.47;;;9.00;99.90;;;;;;5070730;28;20040;-33
2022/11/12 08:50:53;;;;;;;9.10;6.32;;;8.70;99.90;;;;;;5073344;28;20473;-36
2022/11/12 08:53:21;;;;;;;7.25;6.50;;;8.30;99.90;;;;;;5053337;28;20046;-34
2022/11/12 08:55:47;;;;;;;8.07;7.22;;;8.00;99.90;;;;;;5071180;28;20040;-35
2022/11/12 08:58:13;;;;;;;8.63;6.78;;;7.70;99.90;;;;;;5066058;28;20432;-33
2022/11/12 09:00:43;;;;;;;9.15;8.15;;;7.60;99.90;;;;;;5072300;28;20075;-33
2022/11/12 09:03:17;;;;;;;11.35;8.27;;;7.70;99.90;;;;;;5071913;28;20040;-35
2022/11/12 09:05:43;;;;;;;10.20;8.27;;;8.30;99.90;;;;;;5070993;28;20040;-31
2022/11/12 09:08:12;;;;;;;9.40;8.40;;;8.90;99.90;;;;;;5070229;28;20476;-33
2022/11/12 09:10:38;;;;;;;11.45;7.50;;;9.50;99.90;;;;;;5069903;28;20044;-34
2022/11/12 09:13:03;;;;;;;10.02;8.07;;;10.10;99.90;;;;;;5051381;28;20040;-33
2022/11/12 09:15:30;;;;;;;10.63;8.55;;;10.80;99.90;;;;;;5070954;28;20490;-33
2022/11/12 09:18:00;;;;;;;9.30;8.40;;;11.40;99.90;;;;;;5071589;28;20038;-32
2022/11/12 09:20:27;;;;;;;8.88;7.97;;;11.90;99.90;;;;;;5070372;28;20037;-33
2022/11/12 09:22:57;;;;;;;8.57;7.78;;;12.30;99.90;;;;;;5064343;28;20093;-34
2022/11/12 09:25:23;;;;;;;8.70;7.47;;;12.60;99.90;;;;;;5074642;28;20345;-36
2022/11/12 09:27:49;;;;;;;9.05;8.15;;;12.90;99.90;;;;;;5051383;28;20046;-37
2022/11/12 09:30:15;;;;;;;8.35;7.47;;;13.20;99.90;;;;;;5069853;28;20040;-35
2022/11/12 09:32:40;;;;;;;9.75;8.80;;;13.40;99.90;;;;;;5070031;28;20048;-36
2022/11/12 09:35:06;;;;;;;9.55;8.45;;;13.80;99.90;;;;;;5072854;28;20032;-34
2022/11/12 09:37:32;;;;;;;10.90;9.00;;;14.20;99.90;;;;;;5067490;28;20469;-34
2022/11/12 09:39:58;;;;;;;10.45;9.35;;;14.50;99.90;;;;;;5069785;28;20036;-33
2022/11/12 09:42:24;;;;;;;9.48;8.45;;;14.80;99.90;;;;;;5069393;28;20044;-32
2022/11/12 09:45:10;;;;;;;9.10;8.20;;;15.20;99.90;;;;;;5070399;28;20671;-32
2022/11/12 09:47:51;;;;;;;10.20;8.38;;;15.40;99.90;;;;;;5056750;28;20094;-33
2022/11/12 09:50:17;;;;;;;8.60;7.63;;;15.80;99.90;;;;;;5073069;28;20098;-32
2022/11/12 09:52:45;;;;;;;9.27;8.38;;;16.20;99.90;;;;;;5069734;28;20036;-33
2022/11/12 09:55:39;;;;;;;8.07;7.15;;;16.50;99.90;;;;;;5028632;28;20126;-34
2022/11/12 09:58:10;;;;;;;;;;;16.60;99.90;;;;;;5046461;28;20037;-33
2022/11/12 10:00:57;;;;;;;8.75;7.82;;;16.10;99.90;;;;;;5060907;28;19974;-34
2022/11/12 10:03:42;;;;;;;10.23;7.80;;;16.20;99.90;;;;;;5049498;28;20081;-34
2022/11/12 10:06:26;;;;;;;9.70;8.02;;;16.50;99.90;;;;;;5068968;28;20040;-33
2022/11/12 10:08:57;;;;;;;10.20;8.23;;;16.90;99.90;;;;;;5066206;28;20033;-33
2022/11/12 10:14:52;;;;;;;10.48;8.75;;;16.90;99.90;;;;;;5065270;28;20059;-34
2022/11/12 10:17:42;;;;;;;11.77;8.25;;;16.50;99.90;;;;;;5054622;28;20072;-33
2022/11/12 10:20:25;;;;;;;9.90;8.98;;;16.50;99.90;;;;;;5042507;28;20435;-32
2022/11/12 10:23:05;;;;;;;10.85;8.93;;;16.30;99.90;;;;;;5072475;28;20078;-33
2022/11/12 10:25:31;;;;;;;9.50;8.50;;;16.00;99.90;;;;;;5070769;28;20043;-34
2022/11/12 10:27:57;;;;;;;10.50;8.85;;;15.70;99.90;;;;;;5069380;28;20041;-34
2022/11/12 10:30:24;;;;;;;16.10;9.43;;;15.40;99.90;;;;;;5070046;28;20041;-33
2022/11/12 10:32:51;;;;;;;10.82;8.65;;;15.30;99.90;;;;;;5070681;28;20115;-37
2022/11/12 10:35:21;;;;;;;9.63;8.27;;;15.30;99.90;;;;;;5061019;28;20127;-34
2022/11/12 10:37:53;;;;;;;9.52;8.35;;;15.50;99.90;;;;;;5059110;28;20359;-36
2022/11/12 10:40:25;;;;;;;11.38;9.70;;;16.40;99.90;;;;;;5073795;28;20371;-37
2022/11/12 10:42:56;;;;;;;10.40;8.82;;;17.20;99.90;;;;;;5069792;28;20041;-34
2022/11/12 10:45:22;;;;;;;10.65;8.93;;;18.00;99.90;;;;;;5041057;28;20052;-34
2022/11/12 10:47:48;;;;;;;9.32;8.38;;;18.70;99.90;;;;;;5069404;28;20032;-33
2022/11/12 10:50:17;;;;;;;10.20;8.40;;;19.00;99.90;;;;;;5067550;28;20041;-32
2022/11/12 10:53:12;;;;;;;9.50;8.55;;;19.30;99.90;;;;;;5067081;28;20037;-33
2022/11/12 10:55:55;;;;;;;9.70;8.73;;;19.30;97.60;;;;;;5043497;28;20044;-33
2022/11/12 10:58:21;;;;;;;10.38;8.45;;;18.90;93.20;;;;;;5056225;28;20043;-33
2022/11/12 11:01:15;;;;;;;9.55;8.65;;;18.70;99.90;;;;;;5074043;28;20032;-35
2022/11/12 11:03:46;;;;;;;;;;;17.80;99.90;;;;;;5065151;28;20036;-32
2022/11/12 11:06:15;;;;;;;10.48;8.68;;;17.20;99.90;;;;;;5073193;28;19973;-33
2022/11/12 11:08:40;;;;;;;9.70;8.55;;;16.90;99.90;;;;;;5066520;28;20532;-32
2022/11/12 11:11:19;;;;;;;10.85;8.52;;;16.70;99.90;;;;;;5061566;28;20068;-33
2022/11/12 11:13:48;;;;;;;10.57;8.80;;;16.60;99.90;;;;;;5070278;28;20119;-33
2022/11/12 11:16:17;;;;;;;10.88;9.02;;;16.60;99.90;;;;;;5069477;28;20047;-35
2022/11/12 11:19:05;;;;;;;9.65;8.60;;;16.90;99.90;;;;;;5073538;28;20409;-35
2022/11/12 11:21:49;;;;;;;10.05;8.95;;;17.10;99.90;;;;;;5072221;28;20128;-32
2022/11/12 11:24:15;;;;;;;11.18;8.82;;;17.30;99.90;;;;;;5072402;28;20064;-33
2022/11/12 11:26:56;;;;;;;10.43;9.02;;;17.40;99.90;;;;;;5051496;28;20520;-31
2022/11/12 11:29:39;;;;;;;12.38;9.38;;;17.30;99.90;;;;;;5070170;28;20052;-32
2022/11/12 11:32:14;;;;;;;11.05;9.02;;;17.30;99.90;;;;;;5066868;28;20041;-36
2022/11/12 11:34:47;;;;;;;10.85;9.73;;;17.20;99.90;;;;;;5070378;28;20386;-33
2022/11/12 11:37:25;;;;;;;11.48;9.32;;;17.20;99.90;;;;;;5072327;28;20040;-32
2022/11/12 11:40:30;;;;;;;10.20;9.20;;;17.30;99.90;;;;;;5072032;28;20122;-34
2022/11/12 11:43:14;;;;;;;9.80;8.75;;;17.30;99.90;;;;;;5070803;28;20036;-32
2022/11/12 11:45:43;;;;;;;11.95;9.68;;;17.40;99.90;;;;;;5057501;28;20044;-34
2022/11/12 11:48:42;;;;;;;9.95;8.90;;;17.40;99.90;;;;;;5052666;28;20592;-35
2022/11/12 11:51:32;;;;;;;10.10;9.10;;;17.70;99.90;;;;;;5022207;28;20048;-31
2022/11/12 11:54:22;;;;;;;9.98;8.85;;;18.00;99.90;;;;;;5067195;28;20563;-33
2022/11/12 11:56:50;;;;;;;11.63;9.13;;;18.30;99.90;;;;;;5067110;28;20041;-33
2022/11/12 11:59:28;;;;;;;9.85;8.55;;;18.70;99.90;;;;;;5074425;28;20059;-35
2022/11/12 12:02:21;;;;;;;9.95;8.70;;;19.30;99.90;;;;;;5071129;28;20089;-34
2022/11/12 12:05:04;;;;;;;12.90;9.18;;;19.80;99.90;;;;;;5072300;28;20086;-36
2022/11/12 12:07:42;;;;;;;10.15;9.15;;;19.60;99.90;;;;;;5078279;28;20036;-36
2022/11/12 12:10:26;;;;;;;11.77;9.90;;;19.50;99.90;;;;;;5071217;28;20155;-34
2022/11/12 12:13:13;;;;;;;10.57;8.80;;;19.80;99.90;;;;;;5054579;28;20380;-33
2022/11/12 12:15:45;;;;;;;10.60;8.80;;;20.10;94.90;;;;;;5072749;28;20040;-32
2022/11/12 12:18:23;;;;;;;11.05;8.57;;;20.70;95.50;;;;;;5071216;28;20439;-34
2022/11/12 12:20:52;;;;;;;9.50;8.50;;;21.00;91.10;;;;;;5070533;28;20032;-33
2022/11/12 12:23:37;;;;;;;11.48;9.57;;;21.20;93.50;;;;;;5068950;28;20120;-35
2022/11/12 12:26:13;;;;;;;9.70;8.38;;;21.90;92.30;;;;;;5067816;28;20036;-34
2022/11/12 12:28:49;;;;;;;9.40;8.50;;;22.50;76.50;;;;;;5070610;28;20033;-34
2022/11/12 12:31:19;;;;;;;10.20;8.95;;;22.50;72.90;;;;;;5072250;28;20510;-35
2022/11/12 12:34:02;;;;;;;10.23;9.23;;;22.70;69.20;;;;;;5072442;28;20440;-35
2022/11/12 12:36:38;;;;;;;8.30;7.38;;;22.90;66.70;;;;;;5069536;28;20482;-33
2022/11/12 12:39:16;;;;;;;10.85;8.02;;;23.00;61.20;;;;;;5068008;28;20039;-35
2022/11/12 12:41:51;;;;;;;8.65;7.78;;;23.10;66.70;;;;;;5055216;28;20032;-33
2022/11/12 12:44:16;;;;;;;10.15;9.05;;;23.50;65.10;;;;;;5055465;28;20032;-35
2022/11/12 12:46:55;;;;;;;9.20;8.25;;;23.60;59.30;;;;;;5070287;28;20040;-35
2022/11/12 12:49:29;;;;;;;9.13;7.95;;;23.40;56.80;;;;;;5066519;28;20033;-34
2022/11/12 12:51:55;;;;;;;10.75;8.60;;;23.50;58.70;;;;;;5071170;28;20036;-34
2022/11/12 12:54:39;;;;;;;9.25;8.35;;;23.30;58.40;;;;;;5056487;28;20048;-35
2022/11/12 12:57:30;;;;;;;9.38;8.48;;;22.90;59.10;;;;;;5074919;28;20119;-33
2022/11/12 13:00:34;;;;;;;9.52;8.43;;;23.30;62.50;;;;;;5049021;28;20047;-33
2022/11/12 13:03:00;;;;;;;8.82;7.93;;;23.60;61.90;;;;;;5046094;28;20041;-33
2022/11/12 13:05:32;;;;;;;9.20;8.30;;;24.20;60.00;;;;;;5041808;28;20036;-35
2022/11/12 13:08:03;;;;;;;10.68;8.30;;;24.30;56.20;;;;;;5058059;28;20037;-35
2022/11/12 13:10:38;;;;;;;10.77;8.80;;;24.30;56.50;;;;;;5070760;28;20041;-35
2022/11/12 13:13:19;;;;;;;9.13;8.20;;;24.00;55.00;;;;;;5054185;28;20041;-34
2022/11/12 13:15:53;;;;;;;8.52;7.72;;;24.40;54.50;;;;;;5070234;28;20486;-34
2022/11/12 13:18:38;;;;;;;9.20;8.20;;;24.50;53.60;;;;;;5072207;28;20172;-35
2022/11/12 13:21:19;;;;;;;8.90;8.00;;;24.70;53.20;;;;;;5069739;28;20052;-34